Time;durP1;ratioP1;P1;durP2;ratioP2;P2;SDS_P1;SDS_P2;PMS_P1;PMS_P2;Temp;Humidity;BMP_temperature;BMP_pressure;BME280_temperature;BME280_humidity;BME280_pressure;Samples;Min_cycle;Max_cycle;Signal;HPM_P1;HPM_P2
2023/04/09 00:01:40;;;;;;;;;;;8.20;51.50;;;;;;5014743;28;20452;-59
2023/04/09 00:04:05;;;;;;;;;;;8.20;51.50;;;;;;5011932;28;19939;-58
2023/04/09 00:06:31;;;;;;;;;;;8.20;51.40;;;;;;5015385;28;19918;-58
2023/04/09 00:08:56;;;;;;;;;;;8.20;51.40;;;;;;5028452;28;20262;-58
2023/04/09 00:11:21;;;;;;;;;;;8.10;51.50;;;;;;5025535;28;19917;-62
2023/04/09 00:13:47;;;;;;;;;;;8.10;51.60;;;;;;5027524;28;20337;-58
2023/04/09 00:16:13;;;;;;;;;;;8.10;51.70;;;;;;5026576;28;20385;-58
2023/04/09 00:18:38;;;;;;;;;;;8.00;51.70;;;;;;5026525;28;19921;-58
2023/04/09 00:21:04;;;;;;;;;;;8.00;51.80;;;;;;5027589;28;20405;-58
2023/04/09 00:23:29;;;;;;;;;;;8.00;51.90;;;;;;5026065;28;19917;-59
2023/04/09 00:25:55;;;;;;;;;;;7.90;51.90;;;;;;5028954;28;20381;-58
2023/04/09 00:28:20;;;;;;;;;;;7.80;52.00;;;;;;5024692;28;19921;-58
2023/04/09 00:30:46;;;;;;;;;;;7.80;52.00;;;;;;5027662;28;20373;-58
2023/04/09 00:33:11;;;;;;;;;;;7.80;52.00;;;;;;5023754;28;19921;-58
2023/04/09 00:35:36;;;;;;;;;;;7.80;51.90;;;;;;5030363;28;19920;-58
2023/04/09 00:38:02;;;;;;;;;;;7.80;52.00;;;;;;5024615;28;19920;-58
2023/04/09 00:40:27;;;;;;;;;;;7.80;51.90;;;;;;5014674;28;19960;-58
2023/04/09 00:42:53;;;;;;;;;;;7.80;51.90;;;;;;5023443;28;19913;-65
2023/04/09 00:45:18;;;;;;;;;;;7.70;52.00;;;;;;5013307;28;19921;-58
2023/04/09 00:47:45;;;;;;;;;;;7.70;52.10;;;;;;5025727;28;20168;-58
2023/04/09 00:50:10;;;;;;;;;;;7.80;52.10;;;;;;5034559;28;19940;-58
2023/04/09 00:52:36;;;;;;;;;;;7.80;52.30;;;;;;5025486;28;19921;-58
2023/04/09 00:55:03;;;;;;;;;;;7.80;52.30;;;;;;5014528;28;19941;-59
2023/04/09 00:57:28;;;;;;;;;;;7.80;52.40;;;;;;5023154;28;19921;-59
2023/04/09 00:59:54;;;;;;;;;;;7.90;52.50;;;;;;5014926;28;19972;-58
2023/04/09 01:02:19;;;;;;;;;;;7.90;52.60;;;;;;5021013;28;19949;-59
2023/04/09 01:04:45;;;;;;;;;;;7.90;52.50;;;;;;5031292;28;19918;-60
2023/04/09 01:07:15;;;;;;;;;;;7.90;52.70;;;;;;5027306;28;20350;-62
2023/04/09 01:09:42;;;;;;;;;;;8.00;53.00;;;;;;5015324;28;19932;-58
2023/04/09 01:12:24;;;;;;;;;;;8.00;52.80;;;;;;5021197;28;19913;-59
2023/04/09 01:14:56;;;;;;;;;;;8.00;52.50;;;;;;5032374;28;20262;-59
2023/04/09 01:17:23;;;;;;;;;;;7.90;52.40;;;;;;5025478;28;19920;-59
2023/04/09 01:20:09;;;;;;;;;;;7.90;52.20;;;;;;5015277;28;19914;-58
2023/04/09 01:22:53;;;;;;;;;;;7.80;52.20;;;;;;5024507;28;19913;-59
2023/04/09 01:25:31;;;;;;;;;;;7.80;52.20;;;;;;5012919;28;20325;-58
2023/04/09 01:28:09;;;;;;;;;;;7.70;52.20;;;;;;5025209;28;19918;-59
2023/04/09 01:30:35;;;;;;;;;;;7.70;52.10;;;;;;5012637;28;19968;-59
2023/04/09 01:33:02;;;;;;;;;;;7.70;52.30;;;;;;5021715;28;19917;-58
2023/04/09 01:35:28;;;;;;;;;;;7.70;52.40;;;;;;5040027;28;19920;-61
2023/04/09 01:37:54;;;;;;;;;;;7.70;52.60;;;;;;5024487;28;20388;-59
2023/04/09 01:40:20;;;;;;;;;;;7.60;52.50;;;;;;5013359;28;19975;-59
2023/04/09 01:42:46;;;;;;;;;;;7.60;52.70;;;;;;5024318;28;20303;-59
2023/04/09 01:45:13;;;;;;;;;;;7.70;52.80;;;;;;5025527;28;19917;-58
2023/04/09 01:47:39;;;;;;;;;;;7.70;52.90;;;;;;5026831;28;20288;-62
2023/04/09 01:50:05;;;;;;;;;;;7.70;52.90;;;;;;5013666;28;19937;-60
2023/04/09 01:52:30;;;;;;;;;;;7.70;52.90;;;;;;5018627;28;19918;-58
2023/04/09 01:54:55;;;;;;;;;;;7.70;52.90;;;;;;5013049;28;20004;-59
2023/04/09 01:57:21;;;;;;;;;;;7.70;53.00;;;;;;5014647;28;19913;-59
2023/04/09 01:59:46;;;;;;;;;;;7.70;52.90;;;;;;5030379;28;19920;-62
2023/04/09 02:02:16;;;;;;;;;;;7.70;52.80;;;;;;5029065;28;19913;-58
2023/04/09 02:04:45;;;;;;;;;;;7.60;52.90;;;;;;5032519;28;20007;-59
2023/04/09 02:07:16;;;;;;;;;;;7.60;52.80;;;;;;5017974;28;19943;-59
2023/04/09 02:09:44;;;;;;;;;;;7.50;52.80;;;;;;5021285;28;19921;-56
2023/04/09 02:12:11;;;;;;;;;;;7.50;52.70;;;;;;5028686;28;20369;-56
2023/04/09 02:14:37;;;;;;;;;;;7.40;52.60;;;;;;5031138;28;20007;-56
2023/04/09 02:17:03;;;;;;;;;;;7.30;52.60;;;;;;5029212;28;20008;-57
2023/04/09 02:19:40;;;;;;;;;;;7.30;52.50;;;;;;5038108;28;19963;-57
2023/04/09 02:22:06;;;;;;;;;;;7.20;52.60;;;;;;5048138;28;19909;-58
2023/04/09 02:24:31;;;;;;;;;;;7.20;52.60;;;;;;5032688;28;20326;-58
2023/04/09 02:26:57;;;;;;;;;;;7.10;52.60;;;;;;5032108;28;19909;-57
2023/04/09 02:29:22;;;;;;;;;;;7.00;52.70;;;;;;5032262;28;19928;-58
2023/04/09 02:31:48;;;;;;;;;;;7.00;52.80;;;;;;5032181;28;19956;-57
2023/04/09 02:34:14;;;;;;;;;;;7.00;52.80;;;;;;5032617;28;20008;-57
2023/04/09 02:36:39;;;;;;;;;;;6.90;52.70;;;;;;5050702;28;20007;-57
2023/04/09 02:39:05;;;;;;;;;;;6.90;52.80;;;;;;5051804;28;20344;-57
2023/04/09 02:41:30;;;;;;;;;;;6.80;52.80;;;;;;5051997;28;20287;-58
2023/04/09 02:43:56;;;;;;;;;;;6.80;52.90;;;;;;5052294;28;19920;-59
2023/04/09 02:46:21;;;;;;;;;;;6.70;52.90;;;;;;5051897;28;19912;-59
2023/04/09 02:48:46;;;;;;;;;;;6.70;52.90;;;;;;5052363;28;19917;-58
2023/04/09 02:51:12;;;;;;;;;;;6.60;52.90;;;;;;5051741;28;20004;-58
2023/04/09 02:53:39;;;;;;;;;;;6.60;52.90;;;;;;5052158;28;20358;-58
2023/04/09 02:56:05;;;;;;;;;;;6.50;52.90;;;;;;5051367;28;19913;-58
2023/04/09 02:58:30;;;;;;;;;;;6.50;52.90;;;;;;5051983;28;19923;-58
2023/04/09 03:00:55;;;;;;;;;;;6.40;52.90;;;;;;5051593;28;19913;-59
2023/04/09 03:03:21;;;;;;;;;;;6.40;53.00;;;;;;5051787;28;19920;-58
2023/04/09 03:05:46;;;;;;;;;;;6.40;53.10;;;;;;5051869;28;20285;-59
2023/04/09 03:08:12;;;;;;;;;;;6.30;53.10;;;;;;5050447;28;19919;-58
2023/04/09 03:10:37;;;;;;;;;;;6.30;53.20;;;;;;5048553;28;19925;-59
2023/04/09 03:13:03;;;;;;;;;;;6.20;53.30;;;;;;5031767;28;19913;-58
2023/04/09 03:15:28;;;;;;;;;;;6.20;53.40;;;;;;5031530;28;20391;-58
2023/04/09 03:17:53;;;;;;;;;;;6.20;53.50;;;;;;5031493;28;19936;-58
2023/04/09 03:20:19;;;;;;;;;;;6.20;53.80;;;;;;5031617;28;19913;-59
2023/04/09 03:22:44;;;;;;;;;;;6.20;54.00;;;;;;5031699;28;19913;-59
2023/04/09 03:25:10;;;;;;;;;;;6.20;54.00;;;;;;5031410;28;19921;-58
2023/04/09 03:27:35;;;;;;;;;;;6.20;54.20;;;;;;5031606;28;19917;-58
2023/04/09 03:30:02;;;;;;;;;;;6.20;54.30;;;;;;5031188;28;19922;-58
2023/04/09 03:32:27;;;;;;;;;;;6.20;54.20;;;;;;5031388;28;20264;-58
2023/04/09 03:34:52;;;;;;;;;;;6.20;54.20;;;;;;5035263;28;19917;-59
2023/04/09 03:37:18;;;;;;;;;;;6.20;54.20;;;;;;5051284;28;20007;-58
2023/04/09 03:39:43;;;;;;;;;;;6.30;54.20;;;;;;5051101;28;19928;-58
2023/04/09 03:42:09;;;;;;;;;;;6.30;54.20;;;;;;5051183;28;19909;-58
2023/04/09 03:44:34;;;;;;;;;;;6.30;54.30;;;;;;5051143;28;19974;-59
2023/04/09 03:47:00;;;;;;;;;;;6.30;54.40;;;;;;5050905;28;19913;-58
2023/04/09 03:49:25;;;;;;;;;;;6.40;54.60;;;;;;5049974;28;20039;-59
2023/04/09 03:51:50;;;;;;;;;;;6.40;54.80;;;;;;5017696;28;20393;-58
2023/04/09 03:54:16;;;;;;;;;;;6.40;54.70;;;;;;5031653;28;19975;-59
2023/04/09 03:56:41;;;;;;;;;;;6.40;54.70;;;;;;5029562;28;19913;-58
2023/04/09 03:59:07;;;;;;;;;;;6.40;55.00;;;;;;5031564;28;19913;-58
2023/04/09 04:01:33;;;;;;;;;;;6.50;55.30;;;;;;5031069;28;20330;-59
2023/04/09 04:03:59;;;;;;;;;;;6.70;55.60;;;;;;5031720;28;19917;-60
2023/04/09 04:06:24;;;;;;;;;;;6.80;55.70;;;;;;5031029;28;19913;-59
2023/04/09 04:08:50;;;;;;;;;;;7.00;55.80;;;;;;5034365;28;19921;-59
2023/04/09 04:11:16;;;;;;;;;;;7.20;55.90;;;;;;5034914;28;20380;-59
2023/04/09 04:13:41;;;;;;;;;;;7.30;56.00;;;;;;5035000;28;19953;-59
2023/04/09 04:16:07;;;;;;;;;;;7.50;56.10;;;;;;5034816;28;19914;-58
2023/04/09 04:18:33;;;;;;;;;;;7.70;56.20;;;;;;5035367;28;19913;-58
2023/04/09 04:20:59;;;;;;;;;;;7.80;56.20;;;;;;5034556;28;19924;-59
2023/04/09 04:23:24;;;;;;;;;;;7.90;56.40;;;;;;5035050;28;19913;-59
2023/04/09 04:25:51;;;;;;;;;;;8.00;56.60;;;;;;5034547;28;19925;-58
2023/04/09 04:28:17;;;;;;;;;;;8.10;57.10;;;;;;5034570;28;19917;-58
2023/04/09 04:30:42;;;;;;;;;;;8.20;57.20;;;;;;5034283;28;20392;-58
2023/04/09 04:33:08;;;;;;;;;;;8.30;57.20;;;;;;5035016;28;19913;-58
2023/04/09 04:35:33;;;;;;;;;;;8.50;57.20;;;;;;5043962;28;20438;-58
2023/04/09 04:38:00;;;;;;;;;;;8.60;57.30;;;;;;5054354;28;19923;-59
2023/04/09 04:40:25;;;;;;;;;;;8.70;57.40;;;;;;5054204;28;19921;-57
2023/04/09 04:42:51;;;;;;;;;;;8.70;57.60;;;;;;5054491;28;19978;-58
2023/04/09 04:45:16;;;;;;;;;;;8.80;57.60;;;;;;5046691;28;20336;-58
2023/04/09 04:47:42;;;;;;;;;;;8.90;57.80;;;;;;5034138;28;19913;-59
2023/04/09 04:50:07;;;;;;;;;;;8.90;57.80;;;;;;5034346;28;20229;-57
2023/04/09 04:52:33;;;;;;;;;;;9.00;57.80;;;;;;5034278;28;19949;-57
2023/04/09 04:54:58;;;;;;;;;;;9.10;57.90;;;;;;5034158;28;20400;-57
2023/04/09 04:57:24;;;;;;;;;;;9.10;57.90;;;;;;5034128;28;20029;-57
2023/04/09 04:59:49;;;;;;;;;;;9.20;57.90;;;;;;5034061;28;19995;-57
2023/04/09 05:02:15;;;;;;;;;;;9.20;58.00;;;;;;5020124;28;19918;-57
2023/04/09 05:04:40;;;;;;;;;;;9.30;58.00;;;;;;5019783;28;19926;-57
2023/04/09 05:07:06;;;;;;;;;;;9.30;58.10;;;;;;5027812;28;20054;-59
2023/04/09 05:09:31;;;;;;;;;;;9.30;58.30;;;;;;5033638;28;20063;-57
2023/04/09 05:11:56;;;;;;;;;;;9.30;58.40;;;;;;5033745;28;20400;-60
2023/04/09 05:14:22;;;;;;;;;;;9.40;58.50;;;;;;5033888;28;19979;-58
2023/04/09 05:16:48;;;;;;;;;;;9.40;58.60;;;;;;5033840;28;19916;-57
2023/04/09 05:19:13;;;;;;;;;;;9.50;58.60;;;;;;5034199;28;20262;-58
2023/04/09 05:21:39;;;;;;;;;;;9.50;58.80;;;;;;5033335;28;19921;-59
2023/04/09 05:24:05;;;;;;;;;;;9.60;58.90;;;;;;5034070;28;19979;-57
2023/04/09 05:26:30;;;;;;;;;;;9.60;59.00;;;;;;5032219;28;19968;-57
2023/04/09 05:28:55;;;;;;;;;;;9.60;59.10;;;;;;5033875;28;19924;-58
2023/04/09 05:31:21;;;;;;;;;;;9.70;59.20;;;;;;5033563;28;19916;-58
2023/04/09 05:33:46;;;;;;;;;;;9.80;59.20;;;;;;5034091;28;19917;-57
2023/04/09 05:36:15;;;;;;;;;;;9.80;59.30;;;;;;5047958;28;19918;-58
2023/04/09 05:38:41;;;;;;;;;;;9.80;59.40;;;;;;5053353;28;19920;-58
2023/04/09 05:41:07;;;;;;;;;;;9.90;59.40;;;;;;5053153;28;20063;-58
2023/04/09 05:43:32;;;;;;;;;;;10.00;59.50;;;;;;5053534;28;19958;-57
2023/04/09 05:45:58;;;;;;;;;;;10.00;59.50;;;;;;5052994;28;19953;-58
2023/04/09 05:48:23;;;;;;;;;;;10.00;59.60;;;;;;5053667;28;19916;-57
2023/04/09 05:50:49;;;;;;;;;;;10.10;59.60;;;;;;5053171;28;20035;-57
2023/04/09 05:53:15;;;;;;;;;;;10.20;59.70;;;;;;5051888;28;19924;-58
2023/04/09 05:55:40;;;;;;;;;;;10.20;59.80;;;;;;5052779;28;20292;-60
2023/04/09 05:58:06;;;;;;;;;;;10.30;59.80;;;;;;5051455;28;19920;-60
2023/04/09 06:00:31;;;;;;;;;;;10.30;59.70;;;;;;5033052;28;19960;-59
2023/04/09 06:02:57;;;;;;;;;;;10.30;59.70;;;;;;5033041;28;19957;-58
2023/04/09 06:05:22;;;;;;;;;;;10.40;59.70;;;;;;5020918;28;19964;-59
2023/04/09 06:07:47;;;;;;;;;;;10.40;59.80;;;;;;5018026;28;19960;-56
2023/04/09 06:10:13;;;;;;;;;;;10.50;59.90;;;;;;5025295;28;19928;-59
2023/04/09 06:12:38;;;;;;;;;;;10.60;60.00;;;;;;5020905;28;19968;-59
2023/04/09 06:15:04;;;;;;;;;;;10.70;60.00;;;;;;5029702;28;19913;-61
2023/04/09 06:17:29;;;;;;;;;;;10.70;60.10;;;;;;5032589;28;19983;-64
2023/04/09 06:19:55;;;;;;;;;;;10.80;60.20;;;;;;5032103;28;20004;-58
2023/04/09 06:22:20;;;;;;;;;;;10.80;60.20;;;;;;5032702;28;20419;-57
2023/04/09 06:24:46;;;;;;;;;;;10.90;60.30;;;;;;5032505;28;19967;-57
2023/04/09 06:27:11;;;;;;;;;;;10.90;60.40;;;;;;5032404;28;19954;-58
2023/04/09 06:29:37;;;;;;;;;;;11.00;60.10;;;;;;5031886;28;19917;-60
2023/04/09 06:32:02;;;;;;;;;;;11.00;60.10;;;;;;5032172;28;19909;-57
2023/04/09 06:34:28;;;;;;;;;;;11.20;60.30;;;;;;5032841;28;19913;-56
2023/04/09 06:36:53;;;;;;;;;;;11.20;60.30;;;;;;5052215;28;19919;-57
2023/04/09 06:39:19;;;;;;;;;;;11.30;60.40;;;;;;5052173;28;19932;-57
2023/04/09 06:41:45;;;;;;;;;;;11.40;60.40;;;;;;5051929;28;19909;-57
2023/04/09 06:44:10;;;;;;;;;;;11.50;60.40;;;;;;5052511;28;19995;-57
2023/04/09 06:46:36;;;;;;;;;;;11.60;60.40;;;;;;5051855;28;19913;-57
2023/04/09 06:49:01;;;;;;;;;;;11.70;60.20;;;;;;5052335;28;19921;-56
2023/04/09 06:51:27;;;;;;;;;;;11.80;60.10;;;;;;5052078;28;19913;-57
2023/04/09 06:53:52;;;;;;;;;;;11.80;60.00;;;;;;5052072;28;19920;-56
2023/04/09 06:56:18;;;;;;;;;;;11.80;60.00;;;;;;5051815;28;19913;-57
2023/04/09 06:58:43;;;;;;;;;;;11.90;59.90;;;;;;5052027;28;19964;-58
2023/04/09 07:01:09;;;;;;;;;;;11.90;60.00;;;;;;5051968;28;19944;-57
2023/04/09 07:03:34;;;;;;;;;;;12.00;60.20;;;;;;5052345;28;19966;-59
2023/04/09 07:06:00;;;;;;;;;;;12.20;60.40;;;;;;5049498;28;19921;-57
2023/04/09 07:08:25;;;;;;;;;;;12.30;60.40;;;;;;5032322;28;19913;-57
2023/04/09 07:10:51;;;;;;;;;;;12.40;60.60;;;;;;5031629;28;20327;-58
2023/04/09 07:13:16;;;;;;;;;;;12.60;60.30;;;;;;5032003;28;20426;-58
2023/04/09 07:15:41;;;;;;;;;;;12.70;60.10;;;;;;5031971;28;20427;-58
2023/04/09 07:18:07;;;;;;;;;;;12.80;60.30;;;;;;5032403;28;20280;-58
2023/04/09 07:20:33;;;;;;;;;;;12.90;60.10;;;;;;5032498;28;20241;-58
2023/04/09 07:22:58;;;;;;;;;;;13.10;60.10;;;;;;5031762;28;20293;-59
2023/04/09 07:25:24;;;;;;;;;;;13.10;59.50;;;;;;5031657;28;19913;-57
2023/04/09 07:27:49;;;;;;;;;;;13.00;59.00;;;;;;5031949;28;19921;-57
2023/04/09 07:30:15;;;;;;;;;;;12.90;58.80;;;;;;5031812;28;19917;-61
2023/04/09 07:32:40;;;;;;;;;;;13.00;58.90;;;;;;5031942;28;19921;-58
2023/04/09 07:35:06;;;;;;;;;;;13.00;59.30;;;;;;5037310;28;19913;-61
2023/04/09 07:37:32;;;;;;;;;;;13.10;59.70;;;;;;5051654;28;19913;-59
2023/04/09 07:39:57;;;;;;;;;;;13.30;59.60;;;;;;5051442;28;20015;-62
2023/04/09 07:42:23;;;;;;;;;;;13.30;59.60;;;;;;5054320;28;19920;-59
2023/04/09 07:44:49;;;;;;;;;;;13.50;59.80;;;;;;5055705;28;19999;-58
2023/04/09 07:47:14;;;;;;;;;;;13.60;59.80;;;;;;5055601;28;19959;-58
2023/04/09 07:49:40;;;;;;;;;;;13.70;59.20;;;;;;5055828;28;19924;-59
2023/04/09 07:52:05;;;;;;;;;;;13.70;58.80;;;;;;5055754;28;19909;-58
2023/04/09 07:54:33;;;;;;;;;;;13.80;59.20;;;;;;5055568;28;20754;-58
2023/04/09 07:56:58;;;;;;;;;;;13.80;58.90;;;;;;5055305;28;19963;-58
2023/04/09 07:59:24;;;;;;;;;;;13.80;59.60;;;;;;5055486;28;19913;-57
2023/04/09 08:01:50;;;;;;;;;;;13.90;59.90;;;;;;5048630;28;20268;-57
2023/04/09 08:04:16;;;;;;;;;;;14.10;60.00;;;;;;5035985;28;19913;-58
2023/04/09 08:06:41;;;;;;;;;;;14.30;60.00;;;;;;5035463;28;20414;-58
2023/04/09 08:09:07;;;;;;;;;;;14.60;60.00;;;;;;5035749;28;19960;-58
2023/04/09 08:11:32;;;;;;;;;;;14.70;59.80;;;;;;5035145;28;20258;-58
2023/04/09 08:14:00;;;;;;;;;;;15.00;60.50;;;;;;5035607;28;19914;-57
2023/04/09 08:16:26;;;;;;;;;;;15.30;61.10;;;;;;5035280;28;19920;-58
2023/04/09 08:18:52;;;;;;;;;;;15.70;61.20;;;;;;5035476;28;20210;-58
2023/04/09 08:21:18;;;;;;;;;;;16.00;60.70;;;;;;5035123;28;19913;-60
2023/04/09 08:23:43;;;;;;;;;;;16.30;60.80;;;;;;5035634;28;20328;-61
2023/04/09 08:26:09;;;;;;;;;;;17.00;62.50;;;;;;5034946;28;19959;-58
2023/04/09 08:28:34;;;;;;;;;;;17.80;63.00;;;;;;5035272;28;19919;-58
2023/04/09 08:31:00;;;;;;;;;;;18.70;63.40;;;;;;5034830;28;19978;-58
2023/04/09 08:33:25;;;;;;;;;;;19.70;63.00;;;;;;5035181;28;20069;-59
2023/04/09 08:35:51;;;;;;;;;;;20.70;63.60;;;;;;5046303;28;20339;-58
2023/04/09 08:38:17;;;;;;;;;;;21.60;63.10;;;;;;5055148;28;19912;-58
2023/04/09 08:40:42;;;;;;;;;;;22.30;62.30;;;;;;5055195;28;19949;-59
2023/04/09 08:43:09;;;;;;;;;;;22.90;61.40;;;;;;5054718;28;19908;-58
2023/04/09 08:45:34;;;;;;;;;;;23.40;60.70;;;;;;5054585;28;20003;-57
2023/04/09 08:48:02;;;;;;;;;;;23.90;61.00;;;;;;5054588;28;20435;-58
2023/04/09 08:50:31;;;;;;;;;;;24.40;61.10;;;;;;5051118;28;19920;-58
2023/04/09 08:52:57;;;;;;;;;;;25.00;61.10;;;;;;5019830;28;19913;-60
2023/04/09 08:55:22;;;;;;;;;;;25.60;61.30;;;;;;5023035;28;20452;-59
2023/04/09 08:57:48;;;;;;;;;;;26.20;60.40;;;;;;5034735;28;19913;-59
2023/04/09 09:00:13;;;;;;;;;;;26.60;58.20;;;;;;5034143;28;19917;-59
2023/04/09 09:02:59;;;;;;;;;;;27.00;55.80;;;;;;5033840;28;19924;-59
2023/04/09 09:05:38;;;;;;;;;;;27.30;56.40;;;;;;5031973;28;19920;-59
2023/04/09 09:08:03;;;;;;;;;;;27.70;55.80;;;;;;5032020;28;19913;-59
2023/04/09 09:10:45;;;;;;;;;;;28.20;55.40;;;;;;5034158;28;19923;-59
2023/04/09 09:13:21;;;;;;;;;;;28.50;53.10;;;;;;5034291;28;20381;-59
2023/04/09 09:15:49;;;;;;;;;;;28.80;51.70;;;;;;5033521;28;19917;-61
2023/04/09 09:18:15;;;;;;;;;;;29.10;51.00;;;;;;5032926;28;19913;-57
2023/04/09 09:20:41;;;;;;;;;;;29.50;50.80;;;;;;5033086;28;20304;-58
2023/04/09 09:23:07;;;;;;;;;;;29.80;49.70;;;;;;5032351;28;19920;-59
2023/04/09 09:25:40;;;;;;;;;;;30.00;47.80;;;;;;5033806;28;20417;-57
2023/04/09 09:28:09;;;;;;;;;;;30.20;45.00;;;;;;5034029;28;20015;-63
2023/04/09 09:30:36;;;;;;;;;;;30.30;44.20;;;;;;5032312;28;19924;-58
2023/04/09 09:33:07;;;;;;;;;;;30.50;42.50;;;;;;5030574;28;19999;-57
2023/04/09 09:35:46;;;;;;;;;;;30.80;42.80;;;;;;5039768;28;19959;-59
2023/04/09 09:38:12;;;;;;;;;;;31.00;42.60;;;;;;5033751;28;19917;-58
2023/04/09 09:40:37;;;;;;;;;;;31.20;41.70;;;;;;5033510;28;19928;-58
2023/04/09 09:43:02;;;;;;;;;;;31.50;39.40;;;;;;5030087;28;20264;-59
2023/04/09 09:45:28;;;;;;;;;;;31.80;39.40;;;;;;5033640;28;20380;-58
2023/04/09 09:47:54;;;;;;;;;;;32.00;37.30;;;;;;5033501;28;19909;-59
2023/04/09 09:50:22;;;;;;;;;;;32.30;37.60;;;;;;5032417;28;19921;-57
2023/04/09 09:52:48;;;;;;;;;;;32.20;33.20;;;;;;5030920;28;19909;-57
2023/04/09 09:55:14;;;;;;;;;;;31.90;30.00;;;;;;5033330;28;19917;-57
2023/04/09 09:57:42;;;;;;;;;;;31.70;29.80;;;;;;5033247;28;20320;-61
2023/04/09 10:00:10;;;;;;;;;;;31.50;27.60;;;;;;5033313;28;19944;-57
2023/04/09 10:02:39;;;;;;;;;;;31.20;27.60;;;;;;5027435;28;19913;-58
2023/04/09 10:05:05;;;;;;;;;;;31.30;28.10;;;;;;5032164;28;19944;-58
2023/04/09 10:07:31;;;;;;;;;;;31.20;27.20;;;;;;5032916;28;20291;-58
2023/04/09 10:09:57;;;;;;;;;;;31.00;28.10;;;;;;5031730;28;19971;-58
2023/04/09 10:12:23;;;;;;;;;;;31.10;25.50;;;;;;5028299;28;19909;-58
2023/04/09 10:14:50;;;;;;;;;;;30.90;25.30;;;;;;5033258;28;19917;-58
2023/04/09 10:17:16;;;;;;;;;;;31.00;26.00;;;;;;5032720;28;19909;-58
2023/04/09 10:19:45;;;;;;;;;;;31.20;24.90;;;;;;5032659;28;20432;-58
2023/04/09 10:22:12;;;;;;;;;;;31.30;24.20;;;;;;5028421;28;19917;-58
2023/04/09 10:24:38;;;;;;;;;;;31.30;24.30;;;;;;5032965;28;19917;-58
2023/04/09 10:27:11;;;;;;;;;;;31.60;25.30;;;;;;5032323;28;20379;-58
2023/04/09 10:29:41;;;;;;;;;;;31.90;24.60;;;;;;5032620;28;20274;-58
2023/04/09 10:32:07;;;;;;;;;;;31.90;24.30;;;;;;5032115;28;20345;-58
2023/04/09 10:34:39;;;;;;;;;;;31.60;23.60;;;;;;5033485;28;19959;-58
2023/04/09 10:37:09;;;;;;;;;;;31.00;23.80;;;;;;5052351;28;19916;-58
2023/04/09 10:39:37;;;;;;;;;;;30.30;24.70;;;;;;5052318;28;19921;-59
2023/04/09 10:42:07;;;;;;;;;;;30.20;24.70;;;;;;5052195;28;19909;-58
2023/04/09 10:44:34;;;;;;;;;;;29.80;24.10;;;;;;5052340;28;20360;-58
2023/04/09 10:47:01;;;;;;;;;;;29.00;23.70;;;;;;5052337;28;19963;-58
2023/04/09 10:49:34;;;;;;;;;;;28.30;24.60;;;;;;5034321;28;19929;-59
2023/04/09 10:52:01;;;;;;;;;;;27.70;25.30;;;;;;5019988;28;19980;-58
2023/04/09 10:54:32;;;;;;;;;;;27.30;25.70;;;;;;5014435;28;19944;-57
2023/04/09 10:57:07;;;;;;;;;;;27.00;26.40;;;;;;5024233;28;19920;-58
2023/04/09 10:59:46;;;;;;;;;;;26.50;25.50;;;;;;5022325;28;19921;-58
2023/04/09 11:02:25;;;;;;;;;;;26.00;25.90;;;;;;5027765;28;19913;-59
2023/04/09 11:04:51;;;;;;;;;;;25.60;26.20;;;;;;5020415;28;19995;-58
2023/04/09 11:07:17;;;;;;;;;;;25.20;26.20;;;;;;5026899;28;20315;-62
2023/04/09 11:09:43;;;;;;;;;;;24.80;26.70;;;;;;5022395;28;19925;-59
2023/04/09 11:12:10;;;;;;;;;;;24.50;27.20;;;;;;5024397;28;19921;-57
2023/04/09 11:14:35;;;;;;;;;;;24.20;27.90;;;;;;5026518;28;19917;-59
2023/04/09 11:17:02;;;;;;;;;;;24.50;28.70;;;;;;5030866;28;20275;-59
2023/04/09 11:19:27;;;;;;;;;;;24.70;28.60;;;;;;5026398;28;19921;-58
2023/04/09 11:21:52;;;;;;;;;;;24.60;27.80;;;;;;5038715;28;19962;-59
2023/04/09 11:24:18;;;;;;;;;;;24.50;27.90;;;;;;5030786;28;19968;-59
2023/04/09 11:26:44;;;;;;;;;;;24.80;27.90;;;;;;5014485;28;19913;-58
2023/04/09 11:29:10;;;;;;;;;;;24.70;26.90;;;;;;5018150;28;19924;-59
2023/04/09 11:31:35;;;;;;;;;;;24.40;26.90;;;;;;5016820;28;19918;-59
2023/04/09 11:34:01;;;;;;;;;;;24.20;27.20;;;;;;5033907;28;19925;-58
2023/04/09 11:36:27;;;;;;;;;;;24.50;28.10;;;;;;5035673;28;20438;-58
2023/04/09 11:38:54;;;;;;;;;;;24.90;27.10;;;;;;5023014;28;20373;-58
2023/04/09 11:41:32;;;;;;;;;;;24.90;26.80;;;;;;5031658;28;20445;-58
2023/04/09 11:43:58;;;;;;;;;;;24.70;26.40;;;;;;5021382;28;20324;-58
2023/04/09 11:46:25;;;;;;;;;;;24.30;26.20;;;;;;5031311;28;19913;-59
2023/04/09 11:48:51;;;;;;;;;;;23.90;26.20;;;;;;5028728;28;19917;-58
2023/04/09 11:51:17;;;;;;;;;;;23.70;26.40;;;;;;5030941;28;20435;-58
2023/04/09 11:53:42;;;;;;;;;;;23.60;26.30;;;;;;5025892;28;19914;-58
2023/04/09 11:56:09;;;;;;;;;;;24.00;26.90;;;;;;5015394;28;19918;-58
2023/04/09 11:58:35;;;;;;;;;;;24.30;26.10;;;;;;5024197;28;19953;-59
2023/04/09 12:01:00;;;;;;;;;;;24.20;26.10;;;;;;5020314;28;19961;-59
2023/04/09 12:03:27;;;;;;;;;;;24.10;25.90;;;;;;5024064;28;19914;-59
2023/04/09 12:05:52;;;;;;;;;;;23.80;25.90;;;;;;5020030;28;19913;-59
2023/04/09 12:08:21;;;;;;;;;;;23.60;26.60;;;;;;5029464;28;19978;-58
2023/04/09 12:10:47;;;;;;;;;;;23.30;26.50;;;;;;5020136;28;19924;-59
2023/04/09 12:13:12;;;;;;;;;;;23.00;27.00;;;;;;5015054;28;20379;-62
2023/04/09 12:15:42;;;;;;;;;;;22.70;27.50;;;;;;5022266;28;19943;-58
2023/04/09 12:18:08;;;;;;;;;;;22.50;27.70;;;;;;5027108;28;19917;-59
2023/04/09 12:20:35;;;;;;;;;;;22.30;27.90;;;;;;5020992;28;19918;-59
2023/04/09 12:23:02;;;;;;;;;;;22.30;28.20;;;;;;5011170;28;19917;-58
2023/04/09 12:25:31;;;;;;;;;;;22.10;28.40;;;;;;5021891;28;20293;-58
2023/04/09 12:27:57;;;;;;;;;;;22.10;28.50;;;;;;5021692;28;20007;-58
2023/04/09 12:30:23;;;;;;;;;;;22.00;28.50;;;;;;5025779;28;20435;-58
2023/04/09 12:32:49;;;;;;;;;;;22.00;28.70;;;;;;5024794;28;20032;-59
2023/04/09 12:35:14;;;;;;;;;;;22.00;28.60;;;;;;5023337;28;19917;-58
2023/04/09 12:37:40;;;;;;;;;;;22.10;28.70;;;;;;5034730;28;19963;-59
2023/04/09 12:40:06;;;;;;;;;;;22.20;28.70;;;;;;5024508;28;20348;-59
2023/04/09 12:42:32;;;;;;;;;;;22.40;28.40;;;;;;5034737;28;20023;-58
2023/04/09 12:44:57;;;;;;;;;;;22.60;28.30;;;;;;5027280;28;19917;-58
2023/04/09 12:47:22;;;;;;;;;;;23.30;28.00;;;;;;5031726;28;19966;-59
2023/04/09 12:49:49;;;;;;;;;;;24.30;26.90;;;;;;5028548;28;20301;-59
2023/04/09 12:52:15;;;;;;;;;;;25.00;26.00;;;;;;5024428;28;19927;-59
2023/04/09 12:54:40;;;;;;;;;;;25.80;25.70;;;;;;5027636;28;20335;-59
2023/04/09 12:57:05;;;;;;;;;;;26.20;24.70;;;;;;5024488;28;19913;-61
2023/04/09 12:59:31;;;;;;;;;;;26.50;24.50;;;;;;5026501;28;19925;-59
2023/04/09 13:01:56;;;;;;;;;;;26.80;23.80;;;;;;5017201;28;19916;-57
2023/04/09 13:04:22;;;;;;;;;;;27.10;23.60;;;;;;5018227;28;20411;-59
2023/04/09 13:06:47;;;;;;;;;;;27.30;23.20;;;;;;5014406;28;19910;-59
2023/04/09 13:09:13;;;;;;;;;;;27.40;23.40;;;;;;5018711;28;20024;-59
2023/04/09 13:11:38;;;;;;;;;;;27.60;22.90;;;;;;5020933;28;19917;-59
2023/04/09 13:14:04;;;;;;;;;;;27.70;23.10;;;;;;5028578;28;19920;-59
2023/04/09 13:16:29;;;;;;;;;;;27.30;22.90;;;;;;5028527;28;20496;-59
2023/04/09 13:18:54;;;;;;;;;;;26.70;23.20;;;;;;5030187;28;19913;-59
2023/04/09 13:21:20;;;;;;;;;;;26.80;23.80;;;;;;5033670;28;19924;-59
2023/04/09 13:23:45;;;;;;;;;;;27.30;23.60;;;;;;5032011;28;19913;-59
2023/04/09 13:26:11;;;;;;;;;;;27.70;23.20;;;;;;5032093;28;19975;-59
2023/04/09 13:28:36;;;;;;;;;;;27.90;22.70;;;;;;5022586;28;19975;-59
2023/04/09 13:31:02;;;;;;;;;;;28.10;22.80;;;;;;5029760;28;19983;-57
2023/04/09 13:33:27;;;;;;;;;;;28.20;22.10;;;;;;5032235;28;19921;-57
2023/04/09 13:35:53;;;;;;;;;;;28.20;22.10;;;;;;5036512;28;19925;-58
2023/04/09 13:38:18;;;;;;;;;;;27.90;22.10;;;;;;5029355;28;19917;-58
2023/04/09 13:40:44;;;;;;;;;;;27.40;22.20;;;;;;5026649;28;19929;-59
2023/04/09 13:43:09;;;;;;;;;;;27.00;22.60;;;;;;5037611;28;19958;-58
2023/04/09 13:45:35;;;;;;;;;;;26.80;22.60;;;;;;5017616;28;20354;-58
2023/04/09 13:48:00;;;;;;;;;;;26.70;22.80;;;;;;5015426;28;20404;-58
2023/04/09 13:50:25;;;;;;;;;;;26.30;22.70;;;;;;5024463;28;19953;-58
2023/04/09 13:52:51;;;;;;;;;;;26.00;22.80;;;;;;5026990;28;19924;-59
2023/04/09 13:55:16;;;;;;;;;;;25.50;23.00;;;;;;5030980;28;19917;-59
2023/04/09 13:57:42;;;;;;;;;;;25.10;23.60;;;;;;5033133;28;20288;-58
2023/04/09 14:00:07;;;;;;;;;;;24.90;24.10;;;;;;5016389;28;19928;-57
2023/04/09 14:02:33;;;;;;;;;;;24.80;24.40;;;;;;5012868;28;19913;-59
2023/04/09 14:04:58;;;;;;;;;;;24.60;24.80;;;;;;5014975;28;19952;-59
2023/04/09 14:07:24;;;;;;;;;;;24.50;24.80;;;;;;5032905;28;19922;-58
2023/04/09 14:09:50;;;;;;;;;;;24.30;24.90;;;;;;5021365;28;19940;-58
2023/04/09 14:12:15;;;;;;;;;;;24.30;25.10;;;;;;5024658;28;19913;-58
2023/04/09 14:14:41;;;;;;;;;;;24.10;25.50;;;;;;5026116;28;19971;-59
2023/04/09 14:17:06;;;;;;;;;;;23.90;25.70;;;;;;5025040;28;20407;-59